createdAt,value
2017-05-22T00:04:23.886Z,0
2017-05-22T00:14:33.865Z,0
2017-05-22T00:24:43.796Z,0
2017-05-22T00:34:53.768Z,0
2017-05-22T00:45:03.758Z,0
2017-05-22T00:55:13.768Z,0
2017-05-22T01:05:23.727Z,0
2017-05-22T01:15:33.680Z,0
2017-05-22T01:25:43.654Z,0
2017-05-22T01:35:53.626Z,0
2017-05-22T01:46:03.621Z,0
2017-05-22T01:56:13.598Z,0
2017-05-22T02:06:23.586Z,0
2017-05-22T02:16:33.621Z,0
2017-05-22T02:26:43.707Z,0
2017-05-22T02:36:53.810Z,0
2017-05-22T02:47:03.972Z,0
2017-05-22T02:57:14.129Z,0
2017-05-22T03:07:24.279Z,0
2017-05-22T03:17:34.423Z,5
2017-05-22T03:27:44.624Z,15
2017-05-22T03:37:54.864Z,30
2017-05-22T03:48:05.020Z,50
2017-05-22T03:58:15.176Z,75
2017-05-22T04:08:25.308Z,95
2017-05-22T04:18:35.373Z,120
2017-05-22T04:28:45.430Z,150
2017-05-22T04:38:55.416Z,190
2017-05-22T04:49:05.174Z,210
2017-05-22T04:59:14.819Z,245
2017-05-22T05:09:24.379Z,270
2017-05-22T05:19:33.852Z,295
2017-05-22T05:29:43.158Z,355
2017-05-22T05:39:52.322Z,480
2017-05-22T05:50:01.361Z,565
2017-05-22T06:00:10.269Z,715
2017-05-22T06:10:19.090Z,820
2017-05-22T06:20:27.832Z,990
2017-05-22T06:30:36.411Z,1080
2017-05-22T06:40:44.858Z,1250
2017-05-22T06:50:53.199Z,1350
2017-05-22T07:01:01.438Z,1480
2017-05-22T07:11:09.544Z,1700
2017-05-22T07:21:17.577Z,1785
2017-05-22T07:31:25.525Z,1895
2017-05-22T07:41:33.320Z,2005
2017-05-22T07:51:41.102Z,2125
2017-05-22T08:01:48.788Z,2270
2017-05-22T08:11:56.406Z,2360
2017-05-22T08:22:03.998Z,2445
2017-05-22T08:32:11.536Z,2465
2017-05-22T08:42:18.966Z,2695
2017-05-22T08:52:26.431Z,2825
2017-05-22T09:02:33.901Z,2860
2017-05-22T09:12:41.309Z,3110
2017-05-22T09:22:48.707Z,1650
2017-05-22T09:32:56.313Z,1185
2017-05-22T09:43:04.250Z,3400
2017-05-22T09:53:12.085Z,3435
2017-05-22T10:03:19.808Z,3425
2017-05-22T10:13:27.508Z,3575
2017-05-22T10:23:34.957Z,3565
2017-05-22T10:33:42.495Z,3790
2017-05-22T10:43:50.003Z,3760
2017-05-22T10:53:57.465Z,3995
2017-05-22T11:04:04.730Z,3770
2017-05-22T11:14:12.004Z,3770
2017-05-22T11:24:19.209Z,900
2017-05-22T11:34:26.436Z,3975
2017-05-22T11:44:33.617Z,3890
2017-05-22T11:54:40.620Z,3735
2017-05-22T12:04:47.648Z,3630
2017-05-22T12:14:54.802Z,3565
2017-05-22T12:25:01.981Z,3505
2017-05-22T12:35:09.096Z,3275
2017-05-22T12:45:16.244Z,3250
2017-05-22T12:55:23.495Z,2575
2017-05-22T13:05:30.712Z,2875
2017-05-22T13:15:37.905Z,3000
2017-05-22T13:25:44.981Z,2905
2017-05-22T13:35:51.990Z,2785
2017-05-22T13:45:59.142Z,2750
2017-05-22T13:56:06.226Z,2460
2017-05-22T14:06:13.326Z,2550
2017-05-22T14:16:20.528Z,2400
2017-05-22T14:26:27.632Z,2360
2017-05-22T14:36:34.702Z,2180
2017-05-22T14:46:41.783Z,2435
2017-05-22T14:56:48.832Z,1915
2017-05-22T15:06:55.813Z,1330
2017-05-22T15:17:03.140Z,1520
2017-05-22T15:27:10.372Z,945
2017-05-22T15:37:17.898Z,1005
2017-05-22T15:47:25.410Z,1330
2017-05-22T15:57:32.614Z,1430
2017-05-22T16:07:39.523Z,1055
2017-05-22T16:17:46.890Z,690
2017-05-22T16:27:53.819Z,835
2017-05-22T16:38:01.115Z,950
2017-05-22T16:48:08.244Z,720
2017-05-22T16:58:15.448Z,605
2017-05-22T17:08:22.690Z,485
2017-05-22T17:18:30.241Z,470
2017-05-22T17:28:37.960Z,290
2017-05-22T17:38:45.965Z,210
2017-05-22T17:48:54.275Z,185
2017-05-22T17:59:02.738Z,210
2017-05-22T18:09:11.274Z,255
2017-05-22T18:19:19.659Z,250
2017-05-22T18:29:28.041Z,190
2017-05-22T18:39:36.544Z,125
2017-05-22T18:49:45.120Z,90
2017-05-22T18:59:53.775Z,60
2017-05-22T19:10:02.569Z,40
2017-05-22T19:20:11.495Z,20
2017-05-22T19:30:20.487Z,5
2017-05-22T19:40:29.543Z,0
2017-05-22T19:50:38.597Z,0
2017-05-22T20:00:47.689Z,0
2017-05-22T20:10:56.849Z,0
2017-05-22T20:21:06.048Z,0
2017-05-22T20:31:15.220Z,0
2017-05-22T20:41:24.456Z,0
2017-05-22T20:51:33.753Z,0
2017-05-22T21:01:43.086Z,0
2017-05-22T21:11:52.394Z,0
2017-05-22T21:22:01.731Z,0
2017-05-22T21:32:11.079Z,0
2017-05-22T21:42:20.446Z,0
2017-05-22T21:52:29.800Z,0
2017-05-22T22:02:39.227Z,0
2017-05-22T22:12:48.663Z,0
2017-05-22T22:22:58.145Z,0
2017-05-22T22:33:07.625Z,0
2017-05-22T22:43:17.132Z,0
2017-05-22T22:53:26.631Z,0
2017-05-22T23:03:36.226Z,0
2017-05-22T23:13:45.796Z,0
2017-05-22T23:23:55.421Z,0
2017-05-22T23:34:05.042Z,0
2017-05-22T23:44:14.600Z,0
2017-05-22T23:54:24.167Z,0
